createdAt,value
2019-01-20T00:03:07.985Z,-4.29
2019-01-20T00:05:33.963Z,-4.34
2019-01-20T00:07:59.727Z,-4.48
2019-01-20T00:10:25.508Z,-4.45
2019-01-20T00:12:51.276Z,-4.42
2019-01-20T00:15:39.158Z,-4.43
2019-01-20T00:18:04.904Z,-4.41
2019-01-20T00:20:30.669Z,-4.41
2019-01-20T00:22:56.429Z,-4.45
2019-01-20T00:25:22.333Z,-4.45
2019-01-20T00:27:48.150Z,-4.47
2019-01-20T00:30:35.691Z,-4.50
2019-01-20T00:33:01.462Z,-4.55
2019-01-20T00:35:27.239Z,-4.61
2019-01-20T00:37:53.001Z,-4.63
2019-01-20T00:40:18.893Z,-4.58
2019-01-20T00:42:44.654Z,-4.75
2019-01-20T00:45:52.105Z,-4.89
2019-01-20T00:48:17.863Z,-4.88
2019-01-20T00:50:43.624Z,-4.85
2019-01-20T00:53:09.484Z,-4.88
2019-01-20T00:55:35.255Z,-4.85
2019-01-20T00:58:01.132Z,-4.90
2019-01-20T01:01:08.569Z,-4.88
2019-01-20T01:03:34.328Z,-4.80
2019-01-20T01:06:00.200Z,-4.85
2019-01-20T01:08:25.957Z,-5.01
2019-01-20T01:10:51.730Z,-5.06
2019-01-20T01:13:17.601Z,-5.19
2019-01-20T01:15:43.380Z,-5.13
2019-01-20T01:18:09.139Z,-4.97
2019-01-20T01:20:34.897Z,-4.90
2019-01-20T01:23:00.682Z,-5.51
2019-01-20T01:25:28.095Z,-4.78
2019-01-20T01:27:54.007Z,-4.77
2019-01-20T01:33:33.287Z,-5.01
2019-01-20T01:35:59.119Z,-4.91
2019-01-20T01:38:24.886Z,-4.98
2019-01-20T01:40:50.659Z,-5.04
2019-01-20T01:43:16.410Z,-5.14
2019-01-20T01:45:42.228Z,-5.14
2019-01-20T01:48:07.994Z,-5.18
2019-01-20T01:50:33.761Z,-5.27
2019-01-20T01:52:59.523Z,-5.27
2019-01-20T01:55:25.311Z,-5.31
2019-01-20T01:57:52.366Z,-5.19
2019-01-20T02:00:40.607Z,-5.16
2019-01-20T02:03:07.486Z,-5.01
2019-01-20T02:05:33.227Z,-4.84
2019-01-20T02:07:59.027Z,-4.80
2019-01-20T02:10:24.797Z,-4.88
2019-01-20T02:12:51.410Z,-4.99
2019-01-20T02:15:58.962Z,-4.87
2019-01-20T02:18:24.740Z,-4.93
2019-01-20T02:20:50.541Z,-4.99
2019-01-20T02:23:16.331Z,-4.96
2019-01-20T02:25:42.091Z,-4.88
2019-01-20T02:28:07.882Z,-4.83
2019-01-20T02:30:33.625Z,-4.78
2019-01-20T02:32:59.431Z,-4.68
2019-01-20T02:35:25.203Z,-4.63
2019-01-20T02:37:50.963Z,-4.63
2019-01-20T02:40:16.824Z,-4.61
2019-01-20T02:42:42.713Z,-4.53
2019-01-20T02:45:50.178Z,-4.48
2019-01-20T02:48:15.966Z,-4.38
2019-01-20T02:50:41.743Z,-4.34
2019-01-20T02:53:07.548Z,-4.36
2019-01-20T02:55:33.301Z,-4.33
2019-01-20T02:57:59.072Z,-4.39
2019-01-20T03:00:24.869Z,-4.36
2019-01-20T03:02:50.663Z,-4.30
2019-01-20T03:05:58.125Z,-4.31
2019-01-20T03:08:23.894Z,-4.30
2019-01-20T03:10:49.673Z,-4.31
2019-01-20T03:13:15.467Z,-4.29
2019-01-20T03:15:41.224Z,-4.31
2019-01-20T03:18:07.007Z,-4.30
2019-01-20T03:20:32.853Z,-4.20
2019-01-20T03:22:58.657Z,-4.17
2019-01-20T03:25:24.403Z,-4.16
2019-01-20T03:27:50.188Z,-4.19
2019-01-20T03:30:57.647Z,-4.20
2019-01-20T03:33:23.441Z,-4.23
2019-01-20T03:35:49.192Z,-4.24
2019-01-20T03:38:14.959Z,-4.24
2019-01-20T03:40:40.771Z,-4.23
2019-01-20T03:43:06.605Z,-4.22
2019-01-20T03:45:32.359Z,-4.24
2019-01-20T03:47:58.132Z,-4.25
2019-01-20T03:50:23.895Z,-4.16
2019-01-20T03:52:49.687Z,-4.12
2019-01-20T03:55:57.115Z,-4.11
2019-01-20T03:58:22.895Z,-4.14
2019-01-20T04:00:48.749Z,-4.16
2019-01-20T04:03:14.521Z,-4.16
2019-01-20T04:05:40.285Z,-4.18
2019-01-20T04:08:06.071Z,-4.20
2019-01-20T04:10:31.825Z,-4.18
2019-01-20T04:12:57.629Z,-4.17
2019-01-20T04:15:23.389Z,-4.14
2019-01-20T04:17:49.174Z,-4.16
2019-01-20T04:20:14.930Z,-4.16
2019-01-20T04:22:40.811Z,-4.11
2019-01-20T04:25:26.485Z,-4.11
2019-01-20T04:27:52.221Z,-4.10
2019-01-20T04:33:45.051Z,-4.09
2019-01-20T04:36:10.814Z,-4.07
2019-01-20T04:38:36.582Z,-4.07
2019-01-20T04:41:02.359Z,-4.05
2019-01-20T04:43:28.129Z,-4.04
2019-01-20T04:45:53.893Z,-4.04
2019-01-20T04:48:19.654Z,-4.03
2019-01-20T04:50:45.416Z,-4.01
2019-01-20T04:53:11.214Z,-3.93
2019-01-20T04:55:36.967Z,-3.93
2019-01-20T04:58:24.076Z,-3.98
2019-01-20T05:00:50.533Z,-3.98
2019-01-20T05:03:16.303Z,-3.94
2019-01-20T05:05:42.073Z,-3.88
2019-01-20T05:08:07.860Z,-3.87
2019-01-20T05:10:33.643Z,-3.88
2019-01-20T05:12:59.402Z,-3.90
2019-01-20T05:15:25.177Z,-3.92
2019-01-20T05:17:50.954Z,-3.92
2019-01-20T05:20:16.923Z,-3.94
2019-01-20T05:22:42.692Z,-3.96
2019-01-20T05:28:22.056Z,-3.92
2019-01-20T05:30:47.862Z,-3.92
2019-01-20T05:33:13.656Z,-3.94
2019-01-20T05:35:39.452Z,-3.93
2019-01-20T05:38:05.228Z,-3.93
2019-01-20T05:40:31.025Z,-3.92
2019-01-20T05:42:56.811Z,-3.91
2019-01-20T05:46:04.263Z,-3.89
2019-01-20T05:48:30.032Z,-3.90
2019-01-20T05:50:55.816Z,-3.89
2019-01-20T05:53:21.574Z,-3.87
2019-01-20T05:55:47.352Z,-3.85
2019-01-20T05:58:13.104Z,-3.85
2019-01-20T06:00:38.897Z,-3.83
2019-01-20T06:03:04.652Z,-3.83
2019-01-20T06:05:30.440Z,-3.81
2019-01-20T06:07:56.228Z,-3.79
2019-01-20T06:10:22.099Z,-3.83
2019-01-20T06:12:53.842Z,-3.80
2019-01-20T06:15:57.230Z,-3.80
2019-01-20T06:18:22.990Z,-3.86
2019-01-20T06:20:48.784Z,-3.88
2019-01-20T06:23:14.510Z,-3.94
2019-01-20T06:25:40.294Z,-3.92
2019-01-20T06:28:06.076Z,-3.92
2019-01-20T06:30:31.853Z,-3.89
2019-01-20T06:32:57.647Z,-3.89
2019-01-20T06:35:23.421Z,-3.89
2019-01-20T06:37:49.168Z,-3.85
2019-01-20T06:40:14.952Z,-3.84
2019-01-20T06:42:40.716Z,-3.86
2019-01-20T06:48:19.665Z,-3.87
2019-01-20T06:50:45.429Z,-3.86
2019-01-20T06:53:11.204Z,-3.86
2019-01-20T06:55:36.980Z,-3.85
2019-01-20T06:58:02.845Z,-3.86
2019-01-20T07:00:28.671Z,-3.85
2019-01-20T07:02:54.412Z,-3.85
2019-01-20T07:05:20.293Z,-3.86
2019-01-20T07:07:46.040Z,-3.87
2019-01-20T07:10:31.705Z,-3.87
2019-01-20T07:12:57.486Z,-3.87
2019-01-20T07:15:23.387Z,-3.87
2019-01-20T07:17:49.475Z,-3.87
2019-01-20T07:20:15.333Z,-3.89
2019-01-20T07:22:41.096Z,-3.87
2019-01-20T07:25:48.567Z,-3.86
2019-01-20T07:28:14.325Z,-3.85
2019-01-20T07:30:40.098Z,-3.82
2019-01-20T07:35:53.223Z,-3.82
2019-01-20T07:38:18.951Z,-3.80
2019-01-20T07:40:44.722Z,-3.79
2019-01-20T07:43:16.696Z,-3.77
2019-01-20T07:45:38.150Z,-3.75
2019-01-20T07:48:03.909Z,-3.76
2019-01-20T07:50:29.900Z,-3.76
2019-01-20T07:52:55.662Z,-3.74
2019-01-20T07:55:21.525Z,-3.72
2019-01-20T07:57:47.405Z,-3.70
2019-01-20T08:00:54.906Z,-3.65
2019-01-20T08:03:20.624Z,-3.62
2019-01-20T08:05:46.398Z,-3.58
2019-01-20T08:08:12.194Z,-3.60
2019-01-20T08:10:37.942Z,-3.59
2019-01-20T08:16:17.858Z,-3.51
2019-01-20T08:18:43.618Z,-3.49
2019-01-20T08:21:09.393Z,-3.49
2019-01-20T08:23:35.185Z,-3.45
2019-01-20T08:26:00.977Z,-3.47
2019-01-20T08:28:26.761Z,-3.45
2019-01-20T08:30:52.518Z,-3.37
2019-01-20T08:33:18.321Z,-3.34
2019-01-20T08:35:44.082Z,-3.32
2019-01-20T08:38:09.859Z,-3.31
2019-01-20T08:40:35.614Z,-3.25
2019-01-20T08:43:01.397Z,-3.24
2019-01-20T08:48:54.388Z,-3.18
2019-01-20T08:51:20.153Z,-3.17
2019-01-20T08:53:46.160Z,-3.16
2019-01-20T08:56:11.931Z,-3.17
2019-01-20T08:58:37.712Z,-3.13
2019-01-20T09:01:03.690Z,-3.11
2019-01-20T09:03:29.484Z,-3.09
2019-01-20T09:05:55.239Z,-3.06
2019-01-20T09:08:21.017Z,-3.05
2019-01-20T09:10:46.774Z,-3.03
2019-01-20T09:13:12.656Z,-3.00
2019-01-20T09:15:38.423Z,-2.97
2019-01-20T09:18:45.916Z,-2.91
2019-01-20T09:21:11.679Z,-2.83
2019-01-20T09:23:37.438Z,-2.76
2019-01-20T09:26:03.228Z,-2.70
2019-01-20T09:28:29.023Z,-2.70
2019-01-20T09:30:54.754Z,-2.72
2019-01-20T09:33:24.624Z,-2.71
2019-01-20T09:35:48.201Z,-2.68
2019-01-20T09:38:13.991Z,-2.66
2019-01-20T09:40:39.770Z,-2.56
2019-01-20T09:43:05.535Z,-2.54
2019-01-20T09:48:05.192Z,-2.37
2019-01-20T09:50:31.017Z,-2.29
2019-01-20T09:52:56.764Z,-2.20
2019-01-20T09:55:22.542Z,-2.16
2019-01-20T09:57:48.292Z,-2.11
2019-01-20T10:00:55.796Z,-2.03
2019-01-20T10:03:21.584Z,-1.95
2019-01-20T10:05:47.348Z,-1.88
2019-01-20T10:08:13.232Z,-1.80
2019-01-20T10:10:39.079Z,-1.70
2019-01-20T10:13:04.856Z,-1.66
2019-01-20T10:15:30.628Z,-1.64
2019-01-20T10:17:56.449Z,-1.58
2019-01-20T10:21:03.852Z,-1.50
2019-01-20T10:23:29.605Z,-1.44
2019-01-20T10:25:55.394Z,-1.44
2019-01-20T10:28:21.244Z,-1.47
2019-01-20T10:30:47.039Z,-1.35
2019-01-20T10:33:12.830Z,-1.29
2019-01-20T10:35:58.693Z,-1.21
2019-01-20T10:38:24.435Z,-1.17
2019-01-20T10:40:50.235Z,-1.15
2019-01-20T10:43:16.003Z,-1.08
2019-01-20T10:45:41.810Z,-1.04
2019-01-20T10:48:07.677Z,-0.92
2019-01-20T10:50:34.172Z,-0.82
2019-01-20T10:52:59.929Z,-0.74
2019-01-20T10:55:25.682Z,-0.72
2019-01-20T10:57:51.474Z,-0.68
2019-01-20T11:00:38.203Z,-0.66
2019-01-20T11:03:45.704Z,-0.59
2019-01-20T11:06:11.463Z,-0.51
2019-01-20T11:09:18.944Z,-0.43
2019-01-20T11:11:44.698Z,-0.36
2019-01-20T11:17:24.213Z,-0.29
2019-01-20T11:19:49.972Z,-0.24
2019-01-20T11:22:15.774Z,-0.19
2019-01-20T11:24:42.340Z,-0.17
2019-01-20T11:27:08.139Z,-0.20
2019-01-20T11:29:33.908Z,-0.17
2019-01-20T11:31:59.686Z,-0.13
2019-01-20T11:34:25.474Z,-0.06
2019-01-20T11:36:51.243Z,-0.01
2019-01-20T11:39:17.034Z,0.00
2019-01-20T11:41:42.785Z,0.09
2019-01-20T11:44:08.597Z,0.10
2019-01-20T11:46:34.358Z,0.12
2019-01-20T11:49:41.826Z,0.13
2019-01-20T11:52:07.625Z,0.11
2019-01-20T11:54:33.400Z,0.12
2019-01-20T11:56:59.178Z,0.06
2019-01-20T11:59:24.945Z,0.01
2019-01-20T12:01:50.954Z,0.06
2019-01-20T12:04:18.389Z,0.08
2019-01-20T12:06:44.152Z,0.06
2019-01-20T12:09:09.952Z,0.22
2019-01-20T12:11:35.699Z,0.26
2019-01-20T12:14:43.188Z,0.30
2019-01-20T12:17:08.972Z,0.38
2019-01-20T12:19:34.750Z,0.47
2019-01-20T12:22:00.523Z,0.53
2019-01-20T12:24:26.308Z,0.52
2019-01-20T12:26:52.063Z,0.55
2019-01-20T12:29:17.834Z,0.67
2019-01-20T12:31:43.603Z,0.68
2019-01-20T12:34:09.367Z,0.69
2019-01-20T12:36:35.158Z,0.71
2019-01-20T12:39:00.923Z,0.63
2019-01-20T12:41:26.687Z,0.62
2019-01-20T12:43:52.447Z,0.58
2019-01-20T12:46:18.220Z,0.64
2019-01-20T12:48:43.970Z,0.72
2019-01-20T12:51:12.448Z,0.78
2019-01-20T12:53:37.422Z,0.76
2019-01-20T12:56:03.290Z,0.81
2019-01-20T12:58:29.176Z,0.85
2019-01-20T13:00:54.952Z,0.86
2019-01-20T13:03:20.734Z,0.82
2019-01-20T13:05:46.498Z,0.83
2019-01-20T13:08:12.296Z,0.88
2019-01-20T13:10:38.014Z,0.92
2019-01-20T13:13:03.775Z,0.89
2019-01-20T13:15:49.470Z,0.82
2019-01-20T13:18:15.238Z,0.82
2019-01-20T13:23:28.323Z,0.81
2019-01-20T13:25:54.122Z,0.83
2019-01-20T13:28:19.881Z,0.85
2019-01-20T13:30:45.632Z,0.80
2019-01-20T13:33:11.409Z,0.74
2019-01-20T13:35:37.161Z,0.70
2019-01-20T13:38:44.625Z,0.69
2019-01-20T13:41:52.066Z,0.72
2019-01-20T13:44:17.814Z,0.67
2019-01-20T13:46:43.585Z,0.63
2019-01-20T13:49:09.334Z,0.59
2019-01-20T13:51:35.090Z,0.67
2019-01-20T13:54:00.861Z,0.66
2019-01-20T13:56:26.980Z,0.63
2019-01-20T13:58:52.721Z,0.62
2019-01-20T14:01:18.579Z,0.53
2019-01-20T14:03:44.343Z,0.40
2019-01-20T14:06:10.103Z,0.38
2019-01-20T14:08:35.871Z,0.42
2019-01-20T14:11:21.530Z,0.37
2019-01-20T14:13:47.302Z,0.37
2019-01-20T14:16:13.069Z,0.43
2019-01-20T14:18:45.060Z,0.40
2019-01-20T14:21:06.517Z,0.41
2019-01-20T14:23:32.283Z,0.31
2019-01-20T14:25:58.044Z,0.26
2019-01-20T14:28:23.825Z,0.26
2019-01-20T14:30:49.566Z,0.20
2019-01-20T14:33:15.350Z,0.19
2019-01-20T14:35:41.098Z,0.23
2019-01-20T14:38:06.884Z,0.24
2019-01-20T14:40:32.652Z,0.25
2019-01-20T14:42:58.413Z,0.24
2019-01-20T14:45:24.186Z,0.23
2019-01-20T14:47:49.947Z,0.21
2019-01-20T14:50:57.404Z,0.14
2019-01-20T14:53:23.157Z,0.08
2019-01-20T14:55:48.936Z,0.07
2019-01-20T14:58:14.679Z,0.02
2019-01-20T15:00:40.585Z,-0.02
2019-01-20T15:03:06.459Z,-0.07
2019-01-20T15:05:32.233Z,-0.14
2019-01-20T15:07:58.092Z,-0.26
2019-01-20T15:10:23.964Z,-0.37
2019-01-20T15:12:50.320Z,-0.52
2019-01-20T15:15:59.046Z,-0.59
2019-01-20T15:18:24.821Z,-0.63
2019-01-20T15:20:50.584Z,-0.71
2019-01-20T15:23:16.342Z,-0.78
2019-01-20T15:25:42.118Z,-0.80
2019-01-20T15:28:07.860Z,-0.80
2019-01-20T15:33:27.616Z,-0.74
2019-01-20T15:35:53.512Z,-0.82
2019-01-20T15:38:19.261Z,-0.89
2019-01-20T15:40:45.032Z,-0.95
2019-01-20T15:43:10.799Z,-1.04
2019-01-20T15:45:36.772Z,-1.11
2019-01-20T15:48:44.201Z,-1.20
2019-01-20T15:51:10.081Z,-1.20
2019-01-20T15:53:35.832Z,-1.21
2019-01-20T15:56:01.640Z,-1.24
2019-01-20T15:58:27.411Z,-1.34
2019-01-20T16:00:53.170Z,-1.37
2019-01-20T16:03:18.931Z,-1.42
2019-01-20T16:05:44.698Z,-1.43
2019-01-20T16:08:11.914Z,-1.63
2019-01-20T16:10:38.128Z,-1.77
2019-01-20T16:13:03.881Z,-1.80
2019-01-20T16:18:43.070Z,-1.89
2019-01-20T16:21:08.848Z,-1.96
2019-01-20T16:23:34.602Z,-1.93
2019-01-20T16:26:00.380Z,-1.95
2019-01-20T16:28:26.221Z,-2.01
2019-01-20T16:30:52.008Z,-2.09
2019-01-20T16:33:17.777Z,-2.14
2019-01-20T16:35:43.610Z,-2.14
2019-01-20T16:38:09.373Z,-2.11
2019-01-20T16:40:35.174Z,-2.09
2019-01-20T16:43:00.945Z,-2.06
2019-01-20T16:46:08.403Z,-2.17
2019-01-20T16:48:34.394Z,-2.21
2019-01-20T16:51:00.177Z,-2.25
2019-01-20T16:53:25.935Z,-2.27
2019-01-20T16:55:51.695Z,-2.32
2019-01-20T16:58:17.500Z,-2.39
2019-01-20T17:00:43.368Z,-2.45
2019-01-20T17:03:09.145Z,-2.55
2019-01-20T17:05:34.907Z,-2.55
2019-01-20T17:08:00.701Z,-2.60
2019-01-20T17:11:08.188Z,-2.63
2019-01-20T17:13:33.938Z,-2.65
2019-01-20T17:15:59.724Z,-2.85
2019-01-20T17:18:25.499Z,-2.85
2019-01-20T17:20:51.270Z,-2.85
2019-01-20T17:23:17.064Z,-2.90
2019-01-20T17:25:42.859Z,-2.98
2019-01-20T17:28:08.660Z,-2.99
2019-01-20T17:31:16.114Z,-3.03
2019-01-20T17:33:41.962Z,-3.13
2019-01-20T17:36:07.697Z,-3.17
2019-01-20T17:38:33.484Z,-3.25
2019-01-20T17:40:59.277Z,-3.28
2019-01-20T17:43:25.067Z,-3.32
2019-01-20T17:45:50.834Z,-3.35
2019-01-20T17:48:16.628Z,-3.37
2019-01-20T17:50:42.528Z,-3.42
2019-01-20T17:56:22.311Z,-3.57
2019-01-20T17:58:48.096Z,-3.61
2019-01-20T18:01:13.892Z,-3.67
2019-01-20T18:03:39.698Z,-3.72
2019-01-20T18:06:05.568Z,-3.73
2019-01-20T18:08:31.356Z,-3.84
2019-01-20T18:10:57.132Z,-3.89
2019-01-20T18:13:22.906Z,-3.97
2019-01-20T18:15:54.407Z,-4.01
2019-01-20T18:18:16.314Z,-4.04
2019-01-20T18:20:42.087Z,-4.05
2019-01-20T18:23:07.852Z,-3.92
2019-01-20T18:25:33.630Z,-3.87
2019-01-20T18:27:59.485Z,-3.87
2019-01-20T18:30:45.160Z,-3.84
2019-01-20T18:33:10.936Z,-3.81
2019-01-20T18:35:36.732Z,-3.80
2019-01-20T18:38:02.518Z,-3.82
2019-01-20T18:40:28.324Z,-3.81
2019-01-20T18:42:54.271Z,-3.84
2019-01-20T18:46:02.096Z,-3.89
2019-01-20T18:48:27.883Z,-3.94
2019-01-20T18:50:53.693Z,-3.93
2019-01-20T18:53:19.454Z,-3.90
2019-01-20T18:55:45.225Z,-3.91
2019-01-20T18:58:10.987Z,-4.01
2019-01-20T19:01:18.458Z,-4.10
2019-01-20T19:03:44.237Z,-4.09
2019-01-20T19:06:10.009Z,-4.18
2019-01-20T19:08:35.802Z,-4.26
2019-01-20T19:11:01.592Z,-4.31
2019-01-20T19:13:27.374Z,-4.32
2019-01-20T19:15:53.338Z,-4.28
2019-01-20T19:18:19.497Z,-4.34
2019-01-20T19:20:46.789Z,-4.51
2019-01-20T19:23:12.552Z,-4.59
2019-01-20T19:25:38.332Z,-4.62
2019-01-20T19:28:04.214Z,-4.66
2019-01-20T19:31:11.657Z,-4.71
2019-01-20T19:33:37.449Z,-4.80
2019-01-20T19:36:03.246Z,-4.83
2019-01-20T19:38:29.013Z,-4.86
2019-01-20T19:40:54.772Z,-4.87
2019-01-20T19:43:20.560Z,-4.99
2019-01-20T19:45:46.317Z,-5.01
2019-01-20T19:48:19.902Z,-5.08
2019-01-20T19:50:40.129Z,-5.10
2019-01-20T19:53:05.904Z,-5.18
2019-01-20T19:55:31.899Z,-5.20
2019-01-20T19:57:57.763Z,-5.16
2019-01-20T20:01:05.228Z,-5.19
2019-01-20T20:03:31.094Z,-5.28
2019-01-20T20:05:56.854Z,-5.26
2019-01-20T20:08:22.651Z,-5.27
2019-01-20T20:11:30.098Z,-5.33
2019-01-20T20:16:34.479Z,-5.51
2019-01-20T20:19:00.267Z,-5.62
2019-01-20T20:21:26.037Z,-5.68
2019-01-20T20:23:51.839Z,-5.72
2019-01-20T20:26:17.592Z,-5.73
2019-01-20T20:28:43.397Z,-5.74
2019-01-20T20:31:09.143Z,-5.73
2019-01-20T20:33:34.945Z,-5.63
2019-01-20T20:36:00.742Z,-5.55
2019-01-20T20:38:26.515Z,-5.59
2019-01-20T20:40:52.312Z,-5.65
2019-01-20T20:43:18.198Z,-5.60
2019-01-20T20:45:43.942Z,-5.63
2019-01-20T20:48:09.729Z,-5.82
2019-01-20T20:50:35.504Z,-6.14
2019-01-20T20:53:01.299Z,-6.33
2019-01-20T20:55:27.084Z,-6.48
2019-01-20T20:58:14.706Z,-6.40
2019-01-20T21:00:40.481Z,-6.20
2019-01-20T21:03:47.949Z,-6.23
2019-01-20T21:06:13.719Z,-6.33
2019-01-20T21:08:39.502Z,-6.34
2019-01-20T21:11:05.258Z,-6.33
2019-01-20T21:13:31.044Z,-6.26
2019-01-20T21:15:56.817Z,-6.15
2019-01-20T21:18:22.609Z,-6.09
2019-01-20T21:20:48.673Z,-6.12
2019-01-20T21:23:14.443Z,-6.17
2019-01-20T21:25:40.236Z,-6.18
2019-01-20T21:28:06.034Z,-6.23
2019-01-20T21:30:31.807Z,-6.25
2019-01-20T21:32:58.509Z,-6.28
2019-01-20T21:35:24.288Z,-6.34
2019-01-20T21:37:50.171Z,-6.32
2019-01-20T21:40:57.647Z,-6.20
2019-01-20T21:43:23.443Z,-6.14
2019-01-20T21:45:49.225Z,-6.06
2019-01-20T21:48:14.999Z,-5.95
2019-01-20T21:50:40.775Z,-5.83
2019-01-20T21:53:06.576Z,-5.96
2019-01-20T21:55:32.365Z,-5.93
2019-01-20T21:57:58.139Z,-5.84
2019-01-20T22:01:05.615Z,-5.92
2019-01-20T22:03:31.367Z,-5.87
2019-01-20T22:05:57.142Z,-5.83
2019-01-20T22:08:22.904Z,-5.78
2019-01-20T22:10:48.705Z,-5.77
2019-01-20T22:13:14.483Z,-5.71
2019-01-20T22:15:40.262Z,-5.73
2019-01-20T22:18:06.042Z,-5.76
2019-01-20T22:20:31.796Z,-5.73
2019-01-20T22:22:57.571Z,-5.69
2019-01-20T22:25:23.340Z,-5.69
2019-01-20T22:27:49.134Z,-5.70
2019-01-20T22:33:28.802Z,-5.56
2019-01-20T22:35:54.564Z,-5.64
2019-01-20T22:38:20.320Z,-5.73
2019-01-20T22:40:46.112Z,-5.81
2019-01-20T22:43:11.897Z,-5.84
2019-01-20T22:45:37.673Z,-5.85
2019-01-20T22:48:03.779Z,-5.82
2019-01-20T22:50:37.516Z,-5.73
2019-01-20T22:53:03.320Z,-5.67
2019-01-20T22:55:29.069Z,-5.63
2019-01-20T22:57:54.881Z,-5.60
2019-01-20T23:01:01.752Z,-5.72
2019-01-20T23:03:27.544Z,-5.81
2019-01-20T23:06:35.174Z,-5.87
2019-01-20T23:09:06.456Z,-5.86
2019-01-20T23:11:28.636Z,-5.83
2019-01-20T23:13:54.756Z,-5.78
2019-01-20T23:16:20.563Z,-5.81
2019-01-20T23:18:46.341Z,-5.93
2019-01-20T23:21:12.156Z,-6.01
2019-01-20T23:23:37.948Z,-6.00
2019-01-20T23:26:03.833Z,-5.90
2019-01-20T23:28:49.700Z,-5.96
2019-01-20T23:34:40.723Z,-6.06
2019-01-20T23:37:26.388Z,-6.12
2019-01-20T23:39:52.173Z,-6.13
2019-01-20T23:42:17.930Z,-6.04
2019-01-20T23:44:44.058Z,-5.96
2019-01-20T23:47:15.032Z,-5.95
2019-01-20T23:49:37.527Z,-6.05
2019-01-20T23:52:03.392Z,-6.06
2019-01-20T23:54:29.609Z,-5.99
2019-01-20T23:56:55.401Z,-5.88
